createdAt,value
2017-08-06T00:00:56.859Z,973.1
2017-08-06T00:02:06.816Z,973.07
2017-08-06T00:03:17.093Z,973.1
2017-08-06T00:04:27.046Z,973.14
2017-08-06T00:05:37.004Z,973.13
2017-08-06T00:06:47.276Z,973.11
2017-08-06T00:07:57.240Z,973.18
2017-08-06T00:09:07.511Z,973.15
2017-08-06T00:10:17.786Z,973.19
2017-08-06T00:11:28.060Z,973.21
2017-08-06T00:12:38.019Z,973.21
2017-08-06T00:13:47.984Z,973.22
2017-08-06T00:14:57.942Z,973.22
2017-08-06T00:16:07.587Z,973.21
2017-08-06T00:17:17.559Z,973.22
2017-08-06T00:18:27.204Z,973.22
2017-08-06T00:19:37.477Z,973.21
2017-08-06T00:20:47.751Z,973.25
2017-08-06T00:21:58.025Z,973.24
2017-08-06T00:23:07.980Z,973.24
2017-08-06T00:24:17.940Z,973.27
2017-08-06T00:25:27.896Z,973.23
2017-08-06T00:26:38.166Z,973.24
2017-08-06T00:27:47.815Z,973.26
2017-08-06T00:28:58.088Z,973.24
2017-08-06T00:30:08.362Z,973.26
2017-08-06T00:31:18.636Z,973.24
2017-08-06T00:32:28.923Z,973.26
2017-08-06T00:33:38.878Z,973.21
2017-08-06T00:34:48.835Z,973.26
2017-08-06T00:35:59.111Z,973.29
2017-08-06T00:37:09.384Z,973.22
2017-08-06T00:38:19.660Z,973.27
2017-08-06T00:39:29.948Z,973.2
2017-08-06T00:40:40.226Z,973.2
2017-08-06T00:41:50.495Z,973.26
2017-08-06T00:43:00.774Z,973.21
2017-08-06T00:44:10.727Z,973.17
2017-08-06T00:45:21.009Z,973.2
2017-08-06T00:46:31.280Z,973.2
2017-08-06T00:47:41.550Z,973.17
2017-08-06T00:48:51.508Z,973.14
2017-08-06T00:50:01.462Z,973.15
2017-08-06T00:51:11.745Z,973.1
2017-08-06T00:52:22.016Z,973.17
2017-08-06T00:53:31.972Z,973.15
2017-08-06T00:54:41.930Z,973.2
2017-08-06T00:55:52.209Z,973.17
2017-08-06T00:57:02.490Z,973.16
2017-08-06T00:58:12.454Z,973.2
2017-08-06T00:59:22.411Z,973.16
2017-08-06T01:00:32.373Z,973.17
2017-08-06T01:01:42.645Z,973.19
2017-08-06T01:02:52.926Z,973.17
2017-08-06T01:04:03.199Z,973.14
2017-08-06T01:05:13.474Z,973.15
2017-08-06T01:06:23.748Z,973.16
2017-08-06T01:07:34.019Z,973.13
2017-08-06T01:08:44.290Z,973.14
2017-08-06T01:09:54.251Z,973.13
2017-08-06T01:11:04.228Z,973.18
2017-08-06T01:12:14.505Z,973.18
2017-08-06T01:13:24.778Z,973.17
2017-08-06T01:14:35.299Z,973.18
2017-08-06T01:15:45.256Z,973.15
2017-08-06T01:16:55.533Z,973.18
2017-08-06T01:18:05.194Z,973.17
2017-08-06T01:19:15.165Z,973.16
2017-08-06T01:20:25.446Z,973.18
2017-08-06T01:21:35.404Z,973.2
2017-08-06T01:22:45.693Z,973.21
2017-08-06T01:23:55.972Z,973.2
2017-08-06T01:25:05.929Z,973.24
2017-08-06T01:26:16.204Z,973.21
2017-08-06T01:27:26.475Z,973.21
2017-08-06T01:28:36.125Z,973.22
2017-08-06T01:29:46.088Z,973.21
2017-08-06T01:30:56.357Z,973.22
2017-08-06T01:32:06.321Z,973.23
2017-08-06T01:33:16.588Z,973.24
2017-08-06T01:34:26.859Z,973.23
2017-08-06T01:35:37.131Z,973.27
2017-08-06T01:36:47.405Z,973.22
2017-08-06T01:37:57.359Z,973.19
2017-08-06T01:39:07.638Z,973.23
2017-08-06T01:40:17.906Z,973.21
2017-08-06T01:41:27.860Z,973.23
2017-08-06T01:42:37.819Z,973.19
2017-08-06T01:43:48.091Z,973.19
2017-08-06T01:44:58.357Z,973.18
2017-08-06T01:46:08.316Z,973.18
2017-08-06T01:47:18.583Z,973.14
2017-08-06T01:48:28.849Z,973.16
2017-08-06T01:49:38.809Z,973.17
2017-08-06T01:50:48.772Z,973.15
2017-08-06T01:51:58.729Z,973.16
2017-08-06T01:53:08.704Z,973.13
2017-08-06T01:54:18.659Z,973.17
2017-08-06T01:55:28.613Z,973.14
2017-08-06T01:56:38.900Z,973.09
2017-08-06T01:57:48.856Z,973.11
2017-08-06T01:58:59.127Z,973.1
2017-08-06T02:00:09.398Z,973.08
2017-08-06T02:01:19.360Z,973.11
2017-08-06T02:02:29.315Z,973.09
2017-08-06T02:03:39.270Z,973.1
2017-08-06T02:04:49.538Z,973.06
2017-08-06T02:05:59.818Z,973.08
2017-08-06T02:07:10.303Z,973.09
2017-08-06T02:08:20.279Z,973.08
2017-08-06T02:09:30.569Z,973.09
2017-08-06T02:10:40.842Z,973.04
2017-08-06T02:11:51.119Z,973.09
2017-08-06T02:13:03.690Z,973.08
2017-08-06T02:14:13.963Z,973.08
2017-08-06T02:15:24.239Z,973.08
2017-08-06T02:16:34.512Z,973.11
2017-08-06T02:17:44.781Z,973.11
2017-08-06T02:18:57.056Z,973.06
2017-08-06T02:20:07.339Z,973.05
2017-08-06T02:21:17.610Z,973.09
2017-08-06T02:22:27.882Z,973.05
2017-08-06T02:23:38.151Z,973.1
2017-08-06T02:24:48.353Z,973.11
2017-08-06T02:25:58.636Z,973.12
2017-08-06T02:27:08.914Z,973.14
2017-08-06T02:28:18.874Z,973.12
2017-08-06T02:29:28.852Z,973.14
2017-08-06T02:30:38.808Z,973.16
2017-08-06T02:31:49.084Z,973.17
2017-08-06T02:32:59.353Z,973.17
2017-08-06T02:34:09.316Z,973.12
2017-08-06T02:35:19.608Z,973.13
2017-08-06T02:36:29.902Z,973.13
2017-08-06T02:37:40.187Z,973.14
2017-08-06T02:38:50.465Z,973.12
2017-08-06T02:40:00.739Z,973.14
2017-08-06T02:41:10.387Z,973.14
2017-08-06T02:42:20.352Z,973.15
2017-08-06T02:43:30.622Z,973.14
2017-08-06T02:44:40.896Z,973.16
2017-08-06T02:45:51.188Z,973.17
2017-08-06T02:47:01.464Z,973.17
2017-08-06T02:48:11.738Z,973.15
2017-08-06T02:49:21.694Z,973.2
2017-08-06T02:50:31.377Z,973.2
2017-08-06T02:51:41.651Z,973.21
2017-08-06T02:52:51.924Z,973.26
2017-08-06T02:54:02.221Z,973.23
2017-08-06T02:55:12.493Z,973.22
2017-08-06T02:56:22.774Z,973.29
2017-08-06T02:57:33.054Z,973.25
2017-08-06T02:58:43.336Z,973.24
2017-08-06T02:59:53.619Z,973.24
2017-08-06T03:01:03.581Z,973.26
2017-08-06T03:02:13.856Z,973.2
2017-08-06T03:03:24.128Z,973.2
2017-08-06T03:04:34.399Z,973.27
2017-08-06T03:05:44.667Z,973.25
2017-08-06T03:06:54.938Z,973.25
2017-08-06T03:08:05.210Z,973.23
2017-08-06T03:09:15.167Z,973.18
2017-08-06T03:10:25.443Z,973.18
2017-08-06T03:11:35.733Z,973.17
2017-08-06T03:12:46.010Z,973.19
2017-08-06T03:13:56.285Z,973.17
2017-08-06T03:15:06.558Z,973.15
2017-08-06T03:16:16.533Z,973.2
2017-08-06T03:17:26.803Z,973.15
2017-08-06T03:18:37.073Z,973.18
2017-08-06T03:19:47.030Z,973.18
2017-08-06T03:20:56.987Z,973.14
2017-08-06T03:22:07.267Z,973.13
2017-08-06T03:23:17.533Z,973.11
2017-08-06T03:24:27.517Z,973.11
2017-08-06T03:25:37.479Z,973.1
2017-08-06T03:26:47.435Z,973.12
2017-08-06T03:27:57.704Z,973.14
2017-08-06T03:29:07.654Z,973.12
2017-08-06T03:30:17.927Z,973.12
2017-08-06T03:31:28.208Z,973.11
2017-08-06T03:32:38.482Z,973.14
2017-08-06T03:33:48.759Z,973.12
2017-08-06T03:34:59.038Z,973.14
2017-08-06T03:36:09.313Z,973.12
2017-08-06T03:37:19.271Z,973.14
2017-08-06T03:38:29.542Z,973.17
2017-08-06T03:39:39.824Z,973.15
2017-08-06T03:40:50.093Z,973.19
2017-08-06T03:42:00.364Z,973.15
2017-08-06T03:43:10.009Z,973.16
2017-08-06T03:44:20.282Z,973.17
2017-08-06T03:45:30.243Z,973.18
2017-08-06T03:46:39.886Z,973.18
2017-08-06T03:47:50.157Z,973.17
2017-08-06T03:49:00.436Z,973.15
2017-08-06T03:50:10.388Z,973.18
2017-08-06T03:51:20.345Z,973.13
2017-08-06T03:52:30.619Z,973.18
2017-08-06T03:53:40.889Z,973.14
2017-08-06T03:54:51.165Z,973.17
2017-08-06T03:56:01.126Z,973.12
2017-08-06T03:57:11.398Z,973.13
2017-08-06T03:58:21.666Z,973.14
2017-08-06T03:59:31.961Z,973.14
2017-08-06T04:00:42.232Z,973.14
2017-08-06T04:01:52.503Z,973.16
2017-08-06T04:03:02.459Z,973.18
2017-08-06T04:04:12.733Z,973.17
2017-08-06T04:05:23.020Z,973.17
2017-08-06T04:06:32.979Z,973.18
2017-08-06T04:07:43.254Z,973.16
2017-08-06T04:08:53.221Z,973.2
2017-08-06T04:10:03.179Z,973.21
2017-08-06T04:11:13.453Z,973.17
2017-08-06T04:12:23.730Z,973.17
2017-08-06T04:13:34.008Z,973.15
2017-08-06T04:14:44.283Z,973.19
2017-08-06T04:15:54.557Z,973.2
2017-08-06T04:17:04.833Z,973.17
2017-08-06T04:18:15.110Z,973.18
2017-08-06T04:19:25.073Z,973.2
2017-08-06T04:20:35.347Z,973.21
2017-08-06T04:21:45.313Z,973.21
2017-08-06T04:22:55.584Z,973.21
2017-08-06T04:24:05.547Z,973.23
2017-08-06T04:25:15.820Z,973.25
2017-08-06T04:26:25.794Z,973.25
2017-08-06T04:27:35.745Z,973.24
2017-08-06T04:28:45.702Z,973.27
2017-08-06T04:29:55.667Z,973.29
2017-08-06T04:31:05.626Z,973.32
2017-08-06T04:32:15.901Z,973.34
2017-08-06T04:33:26.175Z,973.3
2017-08-06T04:34:36.447Z,973.35
2017-08-06T04:35:46.719Z,973.32
2017-08-06T04:36:56.673Z,973.33
2017-08-06T04:38:06.316Z,973.37
2017-08-06T04:39:16.587Z,973.35
2017-08-06T04:40:26.854Z,973.39
2017-08-06T04:41:36.806Z,973.4
2017-08-06T04:42:46.762Z,973.43
2017-08-06T04:43:57.033Z,973.41
2017-08-06T04:45:07.313Z,973.4
2017-08-06T04:46:17.583Z,973.43
2017-08-06T04:47:27.854Z,973.43
2017-08-06T04:48:37.813Z,973.46
2017-08-06T04:49:48.086Z,973.47
2017-08-06T04:50:58.368Z,973.48
2017-08-06T04:52:08.639Z,973.5
2017-08-06T04:53:18.608Z,973.47
2017-08-06T04:54:28.908Z,973.51
2017-08-06T04:55:39.176Z,973.48
2017-08-06T04:56:49.453Z,973.5
2017-08-06T04:57:59.725Z,973.5
2017-08-06T04:59:09.682Z,973.5
2017-08-06T05:00:19.640Z,973.53
2017-08-06T05:01:29.596Z,973.54
2017-08-06T05:02:39.243Z,973.55
2017-08-06T05:03:49.515Z,973.58
2017-08-06T05:04:59.482Z,973.55
2017-08-06T05:06:09.448Z,973.57
2017-08-06T05:07:19.103Z,973.59
2017-08-06T05:08:29.385Z,973.61
2017-08-06T05:09:39.347Z,973.63
2017-08-06T05:10:49.620Z,973.62
2017-08-06T05:11:59.576Z,973.62
2017-08-06T05:13:09.531Z,973.63
2017-08-06T05:14:19.487Z,973.64
2017-08-06T05:15:29.448Z,973.65
2017-08-06T05:16:39.723Z,973.71
2017-08-06T05:17:49.679Z,973.66
2017-08-06T05:18:59.952Z,973.72
2017-08-06T05:20:09.914Z,973.71
2017-08-06T05:21:20.190Z,973.76
2017-08-06T05:22:30.466Z,973.74
2017-08-06T05:23:40.747Z,973.76
2017-08-06T05:24:50.397Z,973.72
2017-08-06T05:26:00.671Z,973.74
2017-08-06T05:27:10.627Z,973.73
2017-08-06T05:28:20.902Z,973.77
2017-08-06T05:29:31.172Z,973.75
2017-08-06T05:30:41.441Z,973.75
2017-08-06T05:31:51.399Z,973.77
2017-08-06T05:33:01.672Z,973.74
2017-08-06T05:34:11.945Z,973.75
2017-08-06T05:35:22.229Z,973.75
2017-08-06T05:36:32.204Z,973.73
2017-08-06T05:37:42.162Z,973.76
2017-08-06T05:38:52.442Z,973.77
2017-08-06T05:40:02.724Z,973.73
2017-08-06T05:41:12.682Z,973.72
2017-08-06T05:42:22.642Z,973.72
2017-08-06T05:43:32.607Z,973.74
2017-08-06T05:44:42.889Z,973.72
2017-08-06T05:45:52.851Z,973.77
2017-08-06T05:47:03.129Z,973.78
2017-08-06T05:48:13.399Z,973.77
2017-08-06T05:49:23.674Z,973.78
2017-08-06T05:50:33.964Z,973.79
2017-08-06T05:51:44.238Z,973.83
2017-08-06T05:52:54.506Z,973.84
2017-08-06T05:54:04.779Z,973.87
2017-08-06T05:55:14.736Z,973.86
2017-08-06T05:56:25.008Z,973.91
2017-08-06T05:57:35.279Z,973.95
2017-08-06T05:58:45.551Z,973.94
2017-08-06T05:59:55.513Z,973.97
2017-08-06T06:01:05.483Z,973.97
2017-08-06T06:02:15.128Z,974
2017-08-06T06:03:25.405Z,974
2017-08-06T06:04:35.368Z,973.99
2017-08-06T06:05:45.641Z,973.99
2017-08-06T06:06:55.910Z,973.96
2017-08-06T06:08:05.552Z,973.98
2017-08-06T06:09:15.196Z,973.98
2017-08-06T06:10:25.473Z,974.02
2017-08-06T06:11:35.744Z,974.03
2017-08-06T06:12:45.707Z,974.07
2017-08-06T06:13:55.982Z,974.09
2017-08-06T06:15:06.256Z,974.13
2017-08-06T06:16:16.529Z,974.1
2017-08-06T06:17:26.797Z,974.13
2017-08-06T06:18:37.075Z,974.12
2017-08-06T06:19:47.349Z,974.14
2017-08-06T06:20:56.995Z,974.16
2017-08-06T06:22:07.272Z,974.18
2017-08-06T06:23:17.245Z,974.21
2017-08-06T06:24:27.522Z,974.2
2017-08-06T06:25:37.794Z,974.22
2017-08-06T06:26:48.083Z,974.25
2017-08-06T06:27:58.364Z,974.24
2017-08-06T06:29:08.015Z,974.3
2017-08-06T06:30:18.287Z,974.26
2017-08-06T06:31:28.566Z,974.27
2017-08-06T06:32:38.224Z,974.26
2017-08-06T06:33:48.500Z,974.27
2017-08-06T06:34:58.774Z,974.25
2017-08-06T06:36:08.737Z,974.24
2017-08-06T06:37:19.015Z,974.24
2017-08-06T06:38:29.284Z,974.28
2017-08-06T06:39:39.557Z,974.26
2017-08-06T06:40:49.833Z,974.31
2017-08-06T06:42:00.107Z,974.32
2017-08-06T06:43:10.070Z,974.3
2017-08-06T06:44:20.343Z,974.32
2017-08-06T06:45:30.617Z,974.36
2017-08-06T06:46:40.588Z,974.32
2017-08-06T06:47:50.865Z,974.38
2017-08-06T06:49:00.821Z,974.39
2017-08-06T06:50:10.786Z,974.37
2017-08-06T06:51:20.766Z,974.39
2017-08-06T06:52:31.038Z,974.39
2017-08-06T06:53:41.318Z,974.38
2017-08-06T06:54:51.621Z,974.39
2017-08-06T06:56:01.900Z,974.42
2017-08-06T06:57:11.874Z,974.39
2017-08-06T06:58:21.833Z,974.47
2017-08-06T06:59:32.105Z,974.47
2017-08-06T07:00:42.075Z,974.47
2017-08-06T07:01:52.033Z,974.53
2017-08-06T07:03:02.307Z,974.54
2017-08-06T07:04:12.269Z,974.51
2017-08-06T07:05:22.231Z,974.52
2017-08-06T07:06:32.506Z,974.53
2017-08-06T07:07:42.150Z,974.53
2017-08-06T07:08:52.110Z,974.49
2017-08-06T07:10:02.393Z,974.52
2017-08-06T07:11:11.724Z,974.49
2017-08-06T07:12:21.996Z,974.53
2017-08-06T07:13:32.268Z,974.53
2017-08-06T07:14:42.228Z,974.55
2017-08-06T07:15:52.498Z,974.55
2017-08-06T07:17:02.776Z,974.55
2017-08-06T07:18:13.050Z,974.53
2017-08-06T07:19:23.324Z,974.59
2017-08-06T07:20:33.281Z,974.6
2017-08-06T07:21:43.553Z,974.64
2017-08-06T07:22:53.824Z,974.64
2017-08-06T07:24:04.093Z,974.65
2017-08-06T07:25:14.371Z,974.69
2017-08-06T07:26:24.644Z,974.7
2017-08-06T07:27:34.916Z,974.74
2017-08-06T07:28:44.873Z,974.73
2017-08-06T07:29:55.157Z,974.74
2017-08-06T07:31:05.432Z,974.73
2017-08-06T07:32:15.075Z,974.76
2017-08-06T07:33:25.059Z,974.8
2017-08-06T07:34:35.331Z,974.82
2017-08-06T07:35:45.606Z,974.82
2017-08-06T07:36:55.563Z,974.8
2017-08-06T07:38:05.519Z,974.79
2017-08-06T07:39:15.483Z,974.85
2017-08-06T07:40:25.447Z,974.89
2017-08-06T07:41:35.718Z,974.88
2017-08-06T07:42:45.989Z,974.91
2017-08-06T07:43:56.260Z,974.9
2017-08-06T07:45:06.537Z,974.94
2017-08-06T07:46:16.822Z,974.96
2017-08-06T07:47:27.110Z,974.96
2017-08-06T07:48:37.400Z,974.96
2017-08-06T07:49:47.670Z,974.99
2017-08-06T07:50:57.629Z,975
2017-08-06T07:52:07.901Z,975.01
2017-08-06T07:53:17.872Z,975.03
2017-08-06T07:54:28.147Z,974.99
2017-08-06T07:55:38.105Z,975.03
2017-08-06T07:56:48.375Z,975.05
2017-08-06T07:57:58.647Z,975.07
2017-08-06T07:59:08.605Z,975.08
2017-08-06T08:00:18.891Z,975.08
2017-08-06T08:01:29.172Z,975.05
2017-08-06T08:02:39.441Z,975.09
2017-08-06T08:03:49.717Z,975.08
2017-08-06T08:04:59.989Z,975.09
2017-08-06T08:06:10.269Z,975.15
2017-08-06T08:07:20.542Z,975.08
2017-08-06T08:08:30.501Z,975.09
2017-08-06T08:09:40.787Z,975.1
2017-08-06T08:10:51.063Z,975.13
2017-08-06T08:12:01.336Z,975.11
2017-08-06T08:13:11.616Z,975.11
2017-08-06T08:14:21.892Z,975.11
2017-08-06T08:15:32.168Z,975.16
2017-08-06T08:16:42.133Z,975.13
2017-08-06T08:17:51.779Z,975.17
2017-08-06T08:19:02.061Z,975.19
2017-08-06T08:20:12.336Z,975.21
2017-08-06T08:21:22.300Z,975.22
2017-08-06T08:22:32.572Z,975.2
2017-08-06T08:23:42.844Z,975.22
2017-08-06T08:24:52.805Z,975.23
2017-08-06T08:26:02.762Z,975.19
2017-08-06T08:27:13.033Z,975.2
2017-08-06T08:28:23.303Z,975.22
2017-08-06T08:29:33.574Z,975.23
2017-08-06T08:30:43.535Z,975.24
2017-08-06T08:31:53.494Z,975.28
2017-08-06T08:33:03.779Z,975.28
2017-08-06T08:34:14.062Z,975.29
2017-08-06T08:35:24.335Z,975.31
2017-08-06T08:36:34.611Z,975.33
2017-08-06T08:37:44.579Z,975.32
2017-08-06T08:38:54.546Z,975.32
2017-08-06T08:40:04.830Z,975.35
2017-08-06T08:41:15.102Z,975.35
2017-08-06T08:42:25.373Z,975.38
2017-08-06T08:43:35.651Z,975.34
2017-08-06T08:44:45.613Z,975.34
2017-08-06T08:45:55.898Z,975.3
2017-08-06T08:47:05.861Z,975.33
2017-08-06T08:48:15.851Z,975.28
2017-08-06T08:49:25.810Z,975.31
2017-08-06T08:50:35.771Z,975.33
2017-08-06T08:51:46.044Z,975.36
2017-08-06T08:52:56.313Z,975.35
2017-08-06T08:54:05.954Z,975.34
2017-08-06T08:55:15.916Z,975.33
2017-08-06T08:56:25.898Z,975.32
2017-08-06T08:57:35.882Z,975.37
2017-08-06T08:58:46.163Z,975.39
2017-08-06T08:59:56.128Z,975.38
2017-08-06T09:01:05.772Z,975.38
2017-08-06T09:02:16.055Z,975.35
2017-08-06T09:03:26.327Z,975.32
2017-08-06T09:04:36.611Z,975.32
2017-08-06T09:05:46.890Z,975.35
2017-08-06T09:06:57.163Z,975.35
2017-08-06T09:08:07.447Z,975.39
2017-08-06T09:09:17.094Z,975.36
2017-08-06T09:10:27.364Z,975.39
2017-08-06T09:11:37.635Z,975.43
2017-08-06T09:12:47.599Z,975.44
2017-08-06T09:13:57.261Z,975.42
2017-08-06T09:15:07.536Z,975.42
2017-08-06T09:16:17.499Z,975.43
2017-08-06T09:17:27.460Z,975.41
2017-08-06T09:18:37.740Z,975.45
2017-08-06T09:19:48.017Z,975.44
2017-08-06T09:20:57.662Z,975.41
2017-08-06T09:22:07.934Z,975.38
2017-08-06T09:23:18.215Z,975.41
2017-08-06T09:24:28.505Z,975.42
2017-08-06T09:25:37.842Z,975.44
2017-08-06T09:26:47.804Z,975.43
2017-08-06T09:27:58.083Z,975.44
2017-08-06T09:29:08.358Z,975.44
2017-08-06T09:30:18.316Z,975.47
2017-08-06T09:31:27.646Z,975.48
2017-08-06T09:32:37.928Z,975.47
2017-08-06T09:33:47.899Z,975.47
2017-08-06T09:34:58.176Z,975.5
2017-08-06T09:36:08.452Z,975.5
2017-08-06T09:37:18.730Z,975.52
2017-08-06T09:38:29.003Z,975.54
2017-08-06T09:39:38.975Z,975.54
2017-08-06T09:40:48.620Z,975.56
2017-08-06T09:41:58.911Z,975.58
2017-08-06T09:43:08.872Z,975.63
2017-08-06T09:44:19.148Z,975.61
2017-08-06T09:45:29.424Z,975.59
2017-08-06T09:46:39.693Z,975.63
2017-08-06T09:47:49.339Z,975.63
2017-08-06T09:48:59.296Z,975.65
2017-08-06T09:50:09.576Z,975.67
2017-08-06T09:51:19.594Z,975.67
2017-08-06T09:52:29.552Z,975.69
2017-08-06T09:53:39.834Z,975.67
2017-08-06T09:54:49.816Z,975.67
2017-08-06T09:56:00.092Z,975.68
2017-08-06T09:57:10.375Z,975.72
2017-08-06T09:58:20.339Z,975.77
2017-08-06T09:59:30.621Z,975.71
2017-08-06T10:00:40.896Z,975.73
2017-08-06T10:01:50.859Z,975.71
2017-08-06T10:03:01.133Z,975.76
2017-08-06T10:04:11.416Z,975.76
2017-08-06T10:05:21.383Z,975.77
2017-08-06T10:06:31.341Z,975.8
2017-08-06T10:07:41.617Z,975.79
2017-08-06T10:08:51.587Z,975.79
2017-08-06T10:10:01.553Z,975.78
2017-08-06T10:11:10.884Z,975.77
2017-08-06T10:12:20.536Z,975.79
2017-08-06T10:13:30.817Z,975.81
2017-08-06T10:14:40.778Z,975.78
2017-08-06T10:15:51.077Z,975.76
2017-08-06T10:17:01.350Z,975.8
2017-08-06T10:18:11.471Z,975.82
2017-08-06T10:19:21.749Z,975.8
2017-08-06T10:20:32.022Z,975.8
2017-08-06T10:21:41.997Z,975.8
2017-08-06T10:22:51.977Z,975.84
2017-08-06T10:24:02.253Z,975.82
2017-08-06T10:25:12.214Z,975.85
2017-08-06T10:26:22.489Z,975.83
2017-08-06T10:27:32.773Z,975.82
2017-08-06T10:28:43.052Z,975.81
2017-08-06T10:29:53.012Z,975.85
2017-08-06T10:31:02.667Z,975.82
2017-08-06T10:32:12.948Z,975.84
2017-08-06T10:33:23.262Z,975.85
2017-08-06T10:34:33.228Z,975.85
2017-08-06T10:35:43.502Z,975.83
2017-08-06T10:36:53.785Z,975.87
2017-08-06T10:38:03.749Z,975.89
2017-08-06T10:39:13.410Z,975.92
2017-08-06T10:40:23.686Z,975.91
2017-08-06T10:41:33.336Z,975.93
2017-08-06T10:42:43.296Z,975.86
2017-08-06T10:43:52.941Z,975.9
2017-08-06T10:45:02.913Z,975.86
2017-08-06T10:46:12.879Z,975.84
2017-08-06T10:47:23.156Z,975.87
2017-08-06T10:48:33.128Z,975.86
2017-08-06T10:49:43.089Z,975.83
2017-08-06T10:50:53.367Z,975.86
2017-08-06T10:52:03.342Z,975.87
2017-08-06T10:53:13.624Z,975.87
2017-08-06T10:54:23.270Z,975.88
2017-08-06T10:55:33.241Z,975.84
2017-08-06T10:56:43.517Z,975.87
2017-08-06T10:57:52.853Z,975.86
2017-08-06T10:59:03.130Z,975.87
2017-08-06T11:00:13.092Z,975.86
2017-08-06T11:01:23.367Z,975.85
2017-08-06T11:02:33.331Z,975.85
2017-08-06T11:03:43.299Z,975.86
2017-08-06T11:04:52.631Z,975.88
2017-08-06T11:06:02.905Z,975.88
2017-08-06T11:07:13.184Z,975.89
2017-08-06T11:08:23.147Z,975.9
2017-08-06T11:09:33.125Z,975.87
2017-08-06T11:10:43.400Z,975.89
2017-08-06T11:11:53.360Z,975.93
2017-08-06T11:13:03.008Z,975.91
2017-08-06T11:14:12.974Z,975.91
2017-08-06T11:15:23.260Z,975.92
2017-08-06T11:16:33.540Z,975.94
2017-08-06T11:17:43.826Z,975.94
2017-08-06T11:18:54.112Z,975.93
2017-08-06T11:20:03.461Z,975.99
2017-08-06T11:21:13.742Z,976
2017-08-06T11:22:24.019Z,976.03
2017-08-06T11:23:33.987Z,976
2017-08-06T11:24:43.949Z,976.04
2017-08-06T11:25:54.228Z,976.07
2017-08-06T11:27:04.191Z,976.01
2017-08-06T11:28:14.466Z,976.02
2017-08-06T11:29:24.778Z,976.03
2017-08-06T11:30:35.058Z,976
2017-08-06T11:31:45.342Z,976.01
2017-08-06T11:32:55.625Z,976.03
2017-08-06T11:34:05.608Z,976.02
2017-08-06T11:35:15.577Z,976.04
2017-08-06T11:36:25.866Z,976.05
2017-08-06T11:37:36.149Z,976.06
2017-08-06T11:38:46.421Z,976.08
2017-08-06T11:39:56.387Z,976.06
2017-08-06T11:41:06.667Z,976.08
2017-08-06T11:42:16.954Z,976.05
2017-08-06T11:43:27.238Z,976.08
2017-08-06T11:44:37.511Z,976.06
2017-08-06T11:45:46.859Z,976.06
2017-08-06T11:46:56.817Z,976.1
2017-08-06T11:48:06.469Z,976.09
2017-08-06T11:49:16.763Z,976.09
2017-08-06T11:50:27.052Z,976.1
2017-08-06T11:51:37.337Z,976.13
2017-08-06T11:52:47.304Z,976.11
2017-08-06T11:53:57.267Z,976.1
2017-08-06T11:55:07.233Z,976.12
2017-08-06T11:56:17.518Z,976.12
2017-08-06T11:57:27.493Z,976.07
2017-08-06T11:58:37.775Z,976.1
2017-08-06T11:59:48.078Z,976.11
2017-08-06T12:00:58.051Z,976.09
2017-08-06T12:02:07.712Z,976.11
2017-08-06T12:03:17.682Z,976.06
2017-08-06T12:04:27.961Z,976.02
2017-08-06T12:05:38.275Z,976.08
2017-08-06T12:06:47.927Z,976.09
2017-08-06T12:07:57.895Z,976.09
2017-08-06T12:09:07.862Z,976.11
2017-08-06T12:10:17.829Z,976.13
2017-08-06T12:11:28.109Z,976.13
2017-08-06T12:12:38.086Z,976.22
2017-08-06T12:13:48.056Z,976.2
2017-08-06T12:14:58.023Z,976.18
2017-08-06T12:16:07.675Z,976.23
2017-08-06T12:17:17.654Z,976.24
2017-08-06T12:18:27.935Z,976.16
2017-08-06T12:19:37.906Z,976.14
2017-08-06T12:20:47.876Z,976.13
2017-08-06T12:21:58.157Z,976.23
2017-08-06T12:23:08.127Z,976.2
2017-08-06T12:24:18.096Z,976.31
2017-08-06T12:25:28.069Z,976.3
2017-08-06T12:26:38.041Z,976.33
2017-08-06T12:27:48.323Z,976.25
2017-08-06T12:28:58.299Z,976.18
2017-08-06T12:30:08.270Z,976.17
2017-08-06T12:31:18.560Z,976.21
2017-08-06T12:32:28.844Z,976.19
2017-08-06T12:33:38.848Z,976.3
2017-08-06T12:34:48.835Z,976.32
2017-08-06T12:35:59.120Z,976.28
2017-08-06T12:37:09.090Z,976.35
2017-08-06T12:38:19.375Z,976.17
2017-08-06T12:39:29.657Z,976.24
2017-08-06T12:40:39.633Z,976.35
2017-08-06T12:41:49.605Z,976.31
2017-08-06T12:42:59.886Z,976.4
2017-08-06T12:44:10.177Z,976.42
2017-08-06T12:45:19.837Z,976.39
2017-08-06T12:46:29.816Z,976.45
2017-08-06T12:47:40.097Z,976.22
2017-08-06T12:48:50.385Z,976.32
2017-08-06T12:50:00.354Z,976.4
2017-08-06T12:51:10.329Z,976.41
2017-08-06T12:52:20.612Z,976.41
2017-08-06T12:53:30.896Z,976.4
2017-08-06T12:54:40.557Z,976.42
2017-08-06T12:55:50.841Z,976.43
2017-08-06T12:57:00.815Z,976.41
2017-08-06T12:58:10.784Z,976.44
2017-08-06T12:59:20.754Z,976.52
2017-08-06T13:00:31.043Z,976.49
2017-08-06T13:01:41.028Z,976.53
2017-08-06T13:02:50.991Z,976.51
2017-08-06T13:04:00.958Z,976.5
2017-08-06T13:05:10.615Z,976.46
2017-08-06T13:06:20.588Z,976.5
2017-08-06T13:07:30.577Z,976.54
2017-08-06T13:08:40.553Z,976.58
2017-08-06T13:09:50.526Z,976.63
2017-08-06T13:11:00.494Z,976.64
2017-08-06T13:12:09.836Z,976.68
2017-08-06T13:13:20.119Z,976.66
2017-08-06T13:14:30.409Z,976.73
2017-08-06T13:15:40.692Z,976.65
2017-08-06T13:16:50.973Z,976.58
2017-08-06T13:18:00.944Z,976.51
2017-08-06T13:19:10.931Z,976.69
2017-08-06T13:20:20.911Z,976.68
2017-08-06T13:21:31.195Z,976.69
2017-08-06T13:22:41.484Z,976.7
2017-08-06T13:23:51.783Z,976.65
2017-08-06T13:25:02.069Z,976.65
2017-08-06T13:26:12.056Z,976.69
2017-08-06T13:27:22.350Z,976.69
2017-08-06T13:28:32.641Z,976.68
2017-08-06T13:29:42.933Z,976.68
2017-08-06T13:30:52.908Z,976.71
2017-08-06T13:32:03.193Z,976.72
2017-08-06T13:33:13.489Z,976.73
2017-08-06T13:34:23.772Z,976.63
2017-08-06T13:35:33.740Z,976.67
2017-08-06T13:36:44.024Z,976.7
2017-08-06T13:37:54.007Z,976.78
2017-08-06T13:39:04.294Z,976.76
2017-08-06T13:40:14.599Z,976.72
2017-08-06T13:41:24.255Z,976.85
2017-08-06T13:42:34.225Z,976.85
2017-08-06T13:43:43.878Z,976.83
2017-08-06T13:44:53.847Z,976.75
2017-08-06T13:46:03.824Z,976.56
2017-08-06T13:47:14.111Z,976.64
2017-08-06T13:48:23.779Z,976.71
2017-08-06T13:49:34.064Z,976.73
2017-08-06T13:50:44.038Z,976.77
2017-08-06T13:51:54.025Z,976.82
2017-08-06T13:53:04.309Z,976.86
2017-08-06T13:54:14.591Z,976.85
2017-08-06T13:55:24.882Z,976.81
2017-08-06T13:56:35.166Z,976.89
2017-08-06T13:57:45.456Z,976.9
2017-08-06T13:58:55.758Z,976.9
2017-08-06T14:00:06.044Z,976.99
2017-08-06T14:01:16.019Z,977.01
2017-08-06T14:02:25.988Z,976.84
2017-08-06T14:03:36.274Z,976.93
2017-08-06T14:04:46.244Z,976.98
2017-08-06T14:05:56.534Z,977.01
2017-08-06T14:07:06.502Z,977.02
2017-08-06T14:08:16.472Z,977.02
2017-08-06T14:09:26.760Z,977.04
2017-08-06T14:10:36.731Z,977.1
2017-08-06T14:11:47.021Z,977.11
2017-08-06T14:12:57.317Z,977.13
2017-08-06T14:14:07.604Z,977.14
2017-08-06T14:15:17.587Z,977.1
2017-08-06T14:16:27.881Z,977.08
2017-08-06T14:17:37.857Z,977.11
2017-08-06T14:18:48.147Z,977.19
2017-08-06T14:19:58.437Z,977.06
2017-08-06T14:21:08.416Z,976.8
2017-08-06T14:22:18.710Z,976.8
2017-08-06T14:23:28.998Z,977.08
2017-08-06T14:24:39.285Z,976.85
2017-08-06T14:25:49.592Z,977.15
2017-08-06T14:26:59.880Z,977.05
2017-08-06T14:28:09.850Z,977.01
2017-08-06T14:29:20.152Z,976.96
2017-08-06T14:30:30.121Z,977.1
2017-08-06T14:31:40.409Z,976.92
2017-08-06T14:32:50.387Z,977
2017-08-06T14:34:00.675Z,976.74
2017-08-06T14:35:10.966Z,976.71
2017-08-06T14:36:20.934Z,976.69
2017-08-06T14:37:31.218Z,976.67
2017-08-06T14:38:40.883Z,976.67